Time;durP1;ratioP1;P1;durP2;ratioP2;P2;SDS_P1;SDS_P2;PMS_P1;PMS_P2;Temp;Humidity;BMP_temperature;BMP_pressure;BME280_temperature;BME280_humidity;BME280_pressure;Samples;Min_cycle;Max_cycle;Signal;HPM_P1;HPM_P2
2023/12/23 00:01:05;;;;;;;1.00;1.00;;;;;;;;;;5009090;28;20251;-67
2023/12/23 00:03:32;;;;;;;2.90;0.90;;;;;;;;;;4991456;28;20298;-67
2023/12/23 00:06:00;;;;;;;1.23;1.00;;;;;;;;;;5018054;28;20223;-69
2023/12/23 00:08:28;;;;;;;1.00;1.00;;;;;;;;;;5011908;28;20741;-69
2023/12/23 00:10:56;;;;;;;9.77;4.07;;;;;;;;;;5018601;28;20222;-69
2023/12/23 00:13:24;;;;;;;1.00;1.00;;;;;;;;;;5010384;28;20251;-68
2023/12/23 00:15:52;;;;;;;3.83;1.60;;;;;;;;;;4994394;28;20214;-67
2023/12/23 00:18:20;;;;;;;1.80;1.10;;;;;;;;;;5002384;28;20222;-71
2023/12/23 00:20:49;;;;;;;1.37;1.20;;;;;;;;;;5012353;28;20216;-71
2023/12/23 00:23:16;;;;;;;1.30;1.20;;;;;;;;;;5012002;28;20231;-70
2023/12/23 00:25:44;;;;;;;0.93;0.93;;;;;;;;;;5010986;28;20262;-70
2023/12/23 00:28:11;;;;;;;1.50;1.17;;;;;;;;;;4992324;28;20639;-70
2023/12/23 00:30:39;;;;;;;0.93;0.90;;;;;;;;;;4991974;28;20244;-70
2023/12/23 00:33:08;;;;;;;1.03;1.03;;;;;;;;;;4992152;28;20572;-70
2023/12/23 00:35:36;;;;;;;2.20;1.60;;;;;;;;;;4999411;28;20204;-68
2023/12/23 00:38:04;;;;;;;4.53;1.70;;;;;;;;;;5011347;28;20286;-72
2023/12/23 00:40:31;;;;;;;8.23;3.80;;;;;;;;;;5011486;28;20618;-69
2023/12/23 00:42:58;;;;;;;1.63;1.30;;;;;;;;;;5011535;28;20285;-70
2023/12/23 00:45:26;;;;;;;0.90;0.90;;;;;;;;;;5011269;28;20223;-69
2023/12/23 00:47:53;;;;;;;3.50;1.40;;;;;;;;;;5011615;28;20551;-69
2023/12/23 00:50:21;;;;;;;1.37;1.10;;;;;;;;;;5011760;28;20207;-68
2023/12/23 00:52:48;;;;;;;1.53;1.33;;;;;;;;;;5011347;28;20236;-68
2023/12/23 00:55:16;;;;;;;1.20;1.17;;;;;;;;;;5011237;28;20207;-68
2023/12/23 00:57:43;;;;;;;1.00;1.00;;;;;;;;;;5011382;28;20732;-68
2023/12/23 01:00:11;;;;;;;1.10;1.00;;;;;;;;;;5011080;28;20216;-70
2023/12/23 01:02:38;;;;;;;1.40;1.30;;;;;;;;;;5010931;28;20242;-69
2023/12/23 01:05:06;;;;;;;2.67;1.40;;;;;;;;;;5011246;28;20214;-70
2023/12/23 01:07:34;;;;;;;3.00;1.63;;;;;;;;;;5011019;28;20761;-71
2023/12/23 01:10:01;;;;;;;1.33;1.00;;;;;;;;;;5010879;28;20203;-70
2023/12/23 01:12:29;;;;;;;5.57;3.00;;;;;;;;;;5010986;28;20234;-70
2023/12/23 01:14:56;;;;;;;1.43;1.27;;;;;;;;;;5011395;28;20669;-69
2023/12/23 01:17:24;;;;;;;1.20;0.90;;;;;;;;;;5011011;28;20227;-69
2023/12/23 01:19:51;;;;;;;2.77;1.17;;;;;;;;;;5011187;28;20208;-69
2023/12/23 01:22:20;;;;;;;3.07;1.27;;;;;;;;;;5010986;28;20231;-71
2023/12/23 01:24:47;;;;;;;1.47;1.37;;;;;;;;;;5006610;28;20204;-68
2023/12/23 01:27:14;;;;;;;1.10;0.93;;;;;;;;;;5010303;28;20227;-69
2023/12/23 01:29:42;;;;;;;1.60;1.10;;;;;;;;;;5000884;28;20199;-67
2023/12/23 01:32:10;;;;;;;1.53;0.97;;;;;;;;;;5014298;28;20234;-67
2023/12/23 01:34:38;;;;;;;1.07;1.07;;;;;;;;;;5012001;28;20234;-67
2023/12/23 01:37:05;;;;;;;1.00;1.00;;;;;;;;;;5006124;28;20292;-66
2023/12/23 01:39:33;;;;;;;1.00;1.00;;;;;;;;;;5010385;28;20761;-69
2023/12/23 01:42:00;;;;;;;2.13;1.50;;;;;;;;;;5015755;28;20247;-67
2023/12/23 01:44:28;;;;;;;2.10;1.17;;;;;;;;;;5019388;28;20211;-67
2023/12/23 01:46:56;;;;;;;1.97;1.30;;;;;;;;;;4994675;28;20235;-68
2023/12/23 01:49:23;;;;;;;2.70;1.30;;;;;;;;;;4992774;28;20213;-68
2023/12/23 01:51:51;;;;;;;1.63;1.30;;;;;;;;;;5019499;28;20226;-67
2023/12/23 01:54:19;;;;;;;2.43;1.23;;;;;;;;;;5009327;28;20269;-67
2023/12/23 01:56:47;;;;;;;2.10;1.10;;;;;;;;;;4988580;28;20566;-67
2023/12/23 01:59:15;;;;;;;2.20;1.20;;;;;;;;;;5012840;28;20206;-67
2023/12/23 02:01:43;;;;;;;1.13;1.10;;;;;;;;;;5010450;28;20231;-67
2023/12/23 02:04:11;;;;;;;1.70;1.20;;;;;;;;;;5006990;28;20258;-66
2023/12/23 02:06:39;;;;;;;2.07;1.23;;;;;;;;;;4994798;28;20227;-68
2023/12/23 02:09:06;;;;;;;1.00;1.00;;;;;;;;;;5020984;28;20625;-69
2023/12/23 02:11:41;;;;;;;1.97;1.10;;;;;;;;;;5018608;28;20650;-67
2023/12/23 02:14:16;;;;;;;1.23;1.00;;;;;;;;;;5010397;28;20206;-69
2023/12/23 02:16:45;;;;;;;1.30;1.20;;;;;;;;;;5009977;28;20222;-68
2023/12/23 02:19:12;;;;;;;2.60;1.17;;;;;;;;;;4999128;28;20213;-68
2023/12/23 02:21:40;;;;;;;0.90;0.90;;;;;;;;;;5008053;28;20290;-66
2023/12/23 02:24:07;;;;;;;0.80;0.80;;;;;;;;;;5002413;28;20215;-67
2023/12/23 02:26:36;;;;;;;1.73;1.00;;;;;;;;;;5010094;28;20228;-68
2023/12/23 02:29:04;;;;;;;1.93;1.00;;;;;;;;;;4994082;28;20228;-72
2023/12/23 02:31:32;;;;;;;1.00;1.00;;;;;;;;;;4971999;28;22689;-74
2023/12/23 02:34:00;;;;;;;1.57;1.07;;;;;;;;;;4968338;28;20208;-71
2023/12/23 02:36:27;;;;;;;1.47;0.87;;;;;;;;;;4968416;28;20207;-72
2023/12/23 02:38:55;;;;;;;0.90;0.90;;;;;;;;;;4974910;28;20211;-73
2023/12/23 02:41:22;;;;;;;0.90;0.90;;;;;;;;;;4972728;28;20231;-72
2023/12/23 02:43:50;;;;;;;1.00;1.00;;;;;;;;;;4969824;28;20219;-73
2023/12/23 02:46:18;;;;;;;0.90;0.90;;;;;;;;;;4974294;28;20225;-72
2023/12/23 02:48:45;;;;;;;1.00;0.90;;;;;;;;;;4993175;28;20200;-72
2023/12/23 02:51:13;;;;;;;1.40;0.90;;;;;;;;;;4987783;28;20228;-71
2023/12/23 02:53:40;;;;;;;0.90;0.90;;;;;;;;;;5000872;28;20196;-70
2023/12/23 02:56:08;;;;;;;0.97;0.97;;;;;;;;;;5015471;28;20222;-68
2023/12/23 02:58:35;;;;;;;1.00;1.00;;;;;;;;;;5010214;28;20219;-66
2023/12/23 03:01:07;;;;;;;0.80;0.80;;;;;;;;;;5016478;28;20725;-68
2023/12/23 03:03:34;;;;;;;1.00;1.00;;;;;;;;;;5017145;28;20211;-67
2023/12/23 03:06:02;;;;;;;0.90;0.90;;;;;;;;;;5016273;28;20677;-67
2023/12/23 03:08:30;;;;;;;0.90;0.90;;;;;;;;;;5011535;28;20350;-66
2023/12/23 03:10:57;;;;;;;0.83;0.83;;;;;;;;;;5013335;28;20274;-68
2023/12/23 03:13:25;;;;;;;0.80;0.80;;;;;;;;;;5018312;28;20666;-68
2023/12/23 03:15:52;;;;;;;0.80;0.80;;;;;;;;;;5018616;28;20195;-66
2023/12/23 03:18:19;;;;;;;0.80;0.80;;;;;;;;;;5015593;28;20203;-67
2023/12/23 03:20:47;;;;;;;0.87;0.80;;;;;;;;;;5005245;28;20211;-69
2023/12/23 03:23:14;;;;;;;2.10;1.10;;;;;;;;;;5013055;28;20295;-68
2023/12/23 03:25:42;;;;;;;0.73;0.73;;;;;;;;;;5011332;28;20195;-69
2023/12/23 03:28:09;;;;;;;0.90;0.90;;;;;;;;;;5014045;28;20434;-69
2023/12/23 03:30:37;;;;;;;0.90;0.90;;;;;;;;;;5015323;28;20244;-68
2023/12/23 03:33:04;;;;;;;0.60;0.60;;;;;;;;;;4995206;28;20204;-69
2023/12/23 03:35:31;;;;;;;1.40;0.90;;;;;;;;;;5016077;28;20207;-68
2023/12/23 03:37:59;;;;;;;0.80;0.80;;;;;;;;;;5012222;28;20332;-68
2023/12/23 03:40:26;;;;;;;0.80;0.80;;;;;;;;;;5010089;28;20212;-66
2023/12/23 03:42:53;;;;;;;0.70;0.70;;;;;;;;;;5014570;28;20706;-69
2023/12/23 03:45:21;;;;;;;1.17;0.97;;;;;;;;;;5014117;28;20208;-67
2023/12/23 03:47:49;;;;;;;0.80;0.80;;;;;;;;;;5014312;28;20219;-69
2023/12/23 03:50:17;;;;;;;0.90;0.90;;;;;;;;;;5007081;28;20214;-68
2023/12/23 03:52:44;;;;;;;2.27;2.10;;;;;;;;;;5012680;28;20701;-68
2023/12/23 03:55:12;;;;;;;0.80;0.80;;;;;;;;;;5011001;28;20250;-69
2023/12/23 03:57:39;;;;;;;1.03;1.03;;;;;;;;;;5017536;28;20243;-68
2023/12/23 04:00:07;;;;;;;1.00;1.00;;;;;;;;;;5010764;28;20211;-69
2023/12/23 04:02:34;;;;;;;1.10;1.10;;;;;;;;;;4994128;28;20282;-68
2023/12/23 04:05:01;;;;;;;1.00;1.00;;;;;;;;;;4998432;28;20229;-68
2023/12/23 04:07:28;;;;;;;2.63;2.53;;;;;;;;;;5016856;28;20307;-69
2023/12/23 04:09:56;;;;;;;1.13;1.13;;;;;;;;;;5010939;28;20199;-68
2023/12/23 04:12:23;;;;;;;1.83;1.83;;;;;;;;;;5012666;28;20223;-69
2023/12/23 04:14:50;;;;;;;1.10;1.10;;;;;;;;;;5012690;28;20199;-69
2023/12/23 04:17:17;;;;;;;0.97;0.90;;;;;;;;;;5011349;28;20215;-67
2023/12/23 04:19:46;;;;;;;0.90;0.90;;;;;;;;;;5014785;28;20586;-67
2023/12/23 04:22:13;;;;;;;0.90;0.90;;;;;;;;;;5013324;28;20237;-69
2023/12/23 04:24:40;;;;;;;1.00;1.00;;;;;;;;;;5012783;28;20208;-69
2023/12/23 04:27:08;;;;;;;0.70;0.70;;;;;;;;;;5017430;28;20260;-68
2023/12/23 04:29:35;;;;;;;0.80;0.80;;;;;;;;;;5009692;28;20207;-67
2023/12/23 04:32:04;;;;;;;1.33;1.20;;;;;;;;;;5009522;28;20621;-66
2023/12/23 04:34:31;;;;;;;0.87;0.87;;;;;;;;;;5013051;28;20200;-67
2023/12/23 04:36:58;;;;;;;1.10;1.10;;;;;;;;;;5016267;28;20645;-67
2023/12/23 04:39:26;;;;;;;0.93;0.90;;;;;;;;;;5011195;28;20722;-67
2023/12/23 04:41:53;;;;;;;1.00;1.00;;;;;;;;;;5013384;28;20223;-67
2023/12/23 04:44:21;;;;;;;0.80;0.73;;;;;;;;;;5013025;28;20214;-67
2023/12/23 04:46:50;;;;;;;0.93;0.70;;;;;;;;;;5013431;28;20224;-67
2023/12/23 04:49:18;;;;;;;0.73;0.73;;;;;;;;;;5013708;28;21010;-66
2023/12/23 04:51:46;;;;;;;1.00;1.00;;;;;;;;;;5011452;28;20733;-66
2023/12/23 04:54:13;;;;;;;0.70;0.70;;;;;;;;;;5011536;28;20210;-68
2023/12/23 04:56:40;;;;;;;0.77;0.77;;;;;;;;;;5018278;28;20214;-68
2023/12/23 04:59:08;;;;;;;0.97;0.97;;;;;;;;;;5011747;28;20626;-66
2023/12/23 05:01:35;;;;;;;0.90;0.90;;;;;;;;;;5016559;28;20231;-68
2023/12/23 05:04:03;;;;;;;1.60;0.90;;;;;;;;;;5013340;28;20210;-68
2023/12/23 05:06:30;;;;;;;0.83;0.83;;;;;;;;;;5013133;28;20215;-67
2023/12/23 05:08:57;;;;;;;0.80;0.80;;;;;;;;;;5019206;28;20713;-68
2023/12/23 05:11:25;;;;;;;1.03;0.80;;;;;;;;;;5018436;28;20242;-66
2023/12/23 05:13:52;;;;;;;0.73;0.73;;;;;;;;;;5007786;28;20202;-66
2023/12/23 05:16:19;;;;;;;0.77;0.77;;;;;;;;;;5015291;28;20663;-69
2023/12/23 05:18:47;;;;;;;0.70;0.70;;;;;;;;;;5012495;28;20225;-68
2023/12/23 05:21:15;;;;;;;0.60;0.60;;;;;;;;;;5016387;28;20219;-66
2023/12/23 05:23:42;;;;;;;1.50;0.80;;;;;;;;;;5017683;28;20223;-68
2023/12/23 05:26:09;;;;;;;0.80;0.80;;;;;;;;;;5009736;28;20203;-68
2023/12/23 05:28:37;;;;;;;0.70;0.70;;;;;;;;;;5010383;28;20223;-68
2023/12/23 05:31:04;;;;;;;0.70;0.70;;;;;;;;;;5012389;28;20223;-67
2023/12/23 05:33:31;;;;;;;0.83;0.70;;;;;;;;;;5007416;28;20228;-68
2023/12/23 05:35:59;;;;;;;0.70;0.70;;;;;;;;;;4999392;28;20202;-69
2023/12/23 05:38:26;;;;;;;1.73;0.90;;;;;;;;;;5008870;28;20203;-69
2023/12/23 05:40:54;;;;;;;0.70;0.70;;;;;;;;;;5010413;28;20199;-67
2023/12/23 05:43:21;;;;;;;1.07;0.70;;;;;;;;;;5010443;28;20212;-67
2023/12/23 05:45:48;;;;;;;0.63;0.63;;;;;;;;;;4987981;28;20211;-67
2023/12/23 05:48:15;;;;;;;0.80;0.80;;;;;;;;;;5010411;28;20698;-68
2023/12/23 05:50:43;;;;;;;0.70;0.70;;;;;;;;;;5012933;28;20209;-66
2023/12/23 05:53:10;;;;;;;0.63;0.63;;;;;;;;;;4999596;28;20651;-69
2023/12/23 05:55:37;;;;;;;0.67;0.67;;;;;;;;;;5008128;28;20211;-68
2023/12/23 05:58:05;;;;;;;0.70;0.70;;;;;;;;;;5008966;28;20242;-68
2023/12/23 06:00:32;;;;;;;0.80;0.80;;;;;;;;;;5009742;28;20262;-68
2023/12/23 06:02:59;;;;;;;0.70;0.70;;;;;;;;;;5008597;28;20281;-68
2023/12/23 06:05:26;;;;;;;0.80;0.80;;;;;;;;;;5010722;28;20639;-69
2023/12/23 06:07:55;;;;;;;0.70;0.70;;;;;;;;;;5009984;28;20681;-68
2023/12/23 06:10:22;;;;;;;0.80;0.80;;;;;;;;;;5010429;28;20200;-70
2023/12/23 06:12:50;;;;;;;0.70;0.70;;;;;;;;;;5013704;28;20812;-70
2023/12/23 06:15:17;;;;;;;0.73;0.73;;;;;;;;;;5010796;28;20200;-70
2023/12/23 06:17:48;;;;;;;0.80;0.80;;;;;;;;;;5010983;28;20266;-70
2023/12/23 06:20:15;;;;;;;1.40;0.90;;;;;;;;;;5007735;28;20654;-71
2023/12/23 06:22:43;;;;;;;0.83;0.80;;;;;;;;;;5003624;28;20240;-70
2023/12/23 06:25:10;;;;;;;0.70;0.70;;;;;;;;;;5003029;28;20205;-68
2023/12/23 06:27:38;;;;;;;0.70;0.70;;;;;;;;;;5002881;28;20730;-67
2023/12/23 06:30:05;;;;;;;0.80;0.80;;;;;;;;;;5010159;28;20310;-70
2023/12/23 06:32:33;;;;;;;0.80;0.80;;;;;;;;;;5006330;28;20228;-70
2023/12/23 06:35:00;;;;;;;0.90;0.90;;;;;;;;;;5009453;28;20211;-68
2023/12/23 06:37:27;;;;;;;0.80;0.80;;;;;;;;;;5015657;28;20206;-70
2023/12/23 06:39:55;;;;;;;0.70;0.70;;;;;;;;;;5013540;28;20843;-68
2023/12/23 06:42:22;;;;;;;1.00;1.00;;;;;;;;;;5008583;28;20683;-68
2023/12/23 06:44:49;;;;;;;0.80;0.80;;;;;;;;;;5008699;28;20211;-68
2023/12/23 06:47:16;;;;;;;0.80;0.80;;;;;;;;;;5018856;28;20227;-69
2023/12/23 06:49:44;;;;;;;0.77;0.77;;;;;;;;;;5001513;28;20234;-70
2023/12/23 06:52:11;;;;;;;0.73;0.73;;;;;;;;;;5010916;28;20220;-70
2023/12/23 06:54:39;;;;;;;0.83;0.83;;;;;;;;;;5020939;28;20231;-70
2023/12/23 06:57:06;;;;;;;0.60;0.60;;;;;;;;;;4996158;28;20211;-70
2023/12/23 06:59:33;;;;;;;0.73;0.73;;;;;;;;;;5024474;28;20643;-69
2023/12/23 07:02:01;;;;;;;1.17;0.80;;;;;;;;;;5019731;28;20364;-69
2023/12/23 07:04:29;;;;;;;0.80;0.80;;;;;;;;;;5011980;28;20676;-70
2023/12/23 07:06:56;;;;;;;0.87;0.87;;;;;;;;;;5006857;28;20259;-70
2023/12/23 07:09:24;;;;;;;0.63;0.63;;;;;;;;;;5012800;28;20359;-69
2023/12/23 07:11:51;;;;;;;0.80;0.80;;;;;;;;;;4995355;28;20600;-69
2023/12/23 07:14:18;;;;;;;0.90;0.90;;;;;;;;;;5013038;28;20203;-69
2023/12/23 07:16:46;;;;;;;0.70;0.70;;;;;;;;;;5013047;28;20700;-69
2023/12/23 07:19:14;;;;;;;0.80;0.80;;;;;;;;;;5013587;28;20215;-68
2023/12/23 07:21:41;;;;;;;0.83;0.70;;;;;;;;;;5016248;28;20278;-71
2023/12/23 07:24:09;;;;;;;1.00;1.00;;;;;;;;;;5012479;28;20266;-69
2023/12/23 07:26:36;;;;;;;0.90;0.90;;;;;;;;;;5013968;28;20266;-70
2023/12/23 07:29:03;;;;;;;1.00;0.90;;;;;;;;;;5017011;28;20227;-70
2023/12/23 07:31:32;;;;;;;2.73;2.53;;;;;;;;;;5010311;28;20249;-68
2023/12/23 07:34:00;;;;;;;19.53;10.50;;;;;;;;;;5018129;28;20207;-71
2023/12/23 07:36:27;;;;;;;10.67;7.13;;;;;;;;;;5011251;28;20207;-70
2023/12/23 07:38:55;;;;;;;4.60;3.90;;;;;;;;;;5011733;28;20205;-69
2023/12/23 07:41:22;;;;;;;2.00;1.80;;;;;;;;;;5017166;28;20768;-69
2023/12/23 07:43:49;;;;;;;0.90;0.90;;;;;;;;;;5012386;28;20215;-67
2023/12/23 07:46:17;;;;;;;1.20;1.20;;;;;;;;;;4986873;28;20705;-70
2023/12/23 07:48:44;;;;;;;1.50;1.50;;;;;;;;;;4986299;28;20286;-71
2023/12/23 07:51:12;;;;;;;0.90;0.90;;;;;;;;;;4990252;28;20225;-71
2023/12/23 07:53:39;;;;;;;0.80;0.80;;;;;;;;;;4989505;28;20292;-71
2023/12/23 07:56:07;;;;;;;0.80;0.80;;;;;;;;;;4978687;28;20300;-70
2023/12/23 07:58:35;;;;;;;0.73;0.73;;;;;;;;;;4993788;28;20199;-71
2023/12/23 08:01:03;;;;;;;0.80;0.80;;;;;;;;;;4988004;28;20223;-70
2023/12/23 08:03:30;;;;;;;0.70;0.70;;;;;;;;;;5000270;28;20212;-69
2023/12/23 08:05:58;;;;;;;1.00;1.00;;;;;;;;;;5021772;28;20207;-69
2023/12/23 08:08:25;;;;;;;0.80;0.80;;;;;;;;;;5001003;28;20224;-69
2023/12/23 08:10:54;;;;;;;1.23;0.73;;;;;;;;;;4992571;28;21341;-67
2023/12/23 08:13:21;;;;;;;0.70;0.70;;;;;;;;;;4985540;28;20603;-70
2023/12/23 08:15:49;;;;;;;0.73;0.73;;;;;;;;;;4998100;28;20227;-70
2023/12/23 08:18:20;;;;;;;0.80;0.80;;;;;;;;;;4994133;28;20208;-71
2023/12/23 08:20:47;;;;;;;1.00;1.00;;;;;;;;;;4977322;28;20334;-72
2023/12/23 08:23:14;;;;;;;0.80;0.80;;;;;;;;;;4999442;28;20235;-72
2023/12/23 08:25:42;;;;;;;0.80;0.80;;;;;;;;;;4974193;28;20801;-73
2023/12/23 08:28:09;;;;;;;0.70;0.70;;;;;;;;;;4987419;28;20223;-73
2023/12/23 08:30:36;;;;;;;0.80;0.80;;;;;;;;;;4993019;28;20204;-73
2023/12/23 08:33:04;;;;;;;0.97;0.97;;;;;;;;;;4985187;28;20330;-73
2023/12/23 08:35:32;;;;;;;1.10;1.10;;;;;;;;;;4983307;28;20299;-72
2023/12/23 08:37:59;;;;;;;1.00;1.00;;;;;;;;;;4981400;28;20218;-72
2023/12/23 08:40:27;;;;;;;0.80;0.80;;;;;;;;;;4991437;28;21030;-73
2023/12/23 08:42:54;;;;;;;0.80;0.80;;;;;;;;;;4995180;28;20239;-73
2023/12/23 08:45:22;;;;;;;0.70;0.70;;;;;;;;;;4998969;28;20787;-72
2023/12/23 08:47:49;;;;;;;0.80;0.80;;;;;;;;;;4992419;28;20227;-72
2023/12/23 08:50:17;;;;;;;0.73;0.70;;;;;;;;;;4999684;28;20218;-72
2023/12/23 08:52:44;;;;;;;0.80;0.80;;;;;;;;;;4988584;28;20228;-72
2023/12/23 08:55:12;;;;;;;1.07;1.07;;;;;;;;;;4983400;28;20271;-72
2023/12/23 08:57:39;;;;;;;1.30;1.30;;;;;;;;;;4989522;28;20219;-72
2023/12/23 09:00:07;;;;;;;0.60;0.60;;;;;;;;;;4997620;28;20230;-72
2023/12/23 09:02:35;;;;;;;0.80;0.80;;;;;;;;;;4992169;28;20664;-72
2023/12/23 09:05:02;;;;;;;1.07;1.07;;;;;;;;;;4986875;28;20215;-73
2023/12/23 09:07:29;;;;;;;0.70;0.70;;;;;;;;;;4987020;28;20207;-73
2023/12/23 09:10:00;;;;;;;0.80;0.80;;;;;;;;;;4977273;28;20271;-73
2023/12/23 09:12:27;;;;;;;0.80;0.80;;;;;;;;;;4979100;28;20240;-73
2023/12/23 09:14:55;;;;;;;0.80;0.80;;;;;;;;;;4981203;28;20207;-71
2023/12/23 09:17:22;;;;;;;0.80;0.80;;;;;;;;;;5013847;28;20219;-72
2023/12/23 09:19:50;;;;;;;0.73;0.73;;;;;;;;;;5017565;28;20593;-70
2023/12/23 09:22:18;;;;;;;0.90;0.90;;;;;;;;;;5007095;28;20224;-71
2023/12/23 09:24:47;;;;;;;0.80;0.80;;;;;;;;;;5000149;28;20952;-70
2023/12/23 09:27:15;;;;;;;0.70;0.70;;;;;;;;;;5015665;28;20265;-71
2023/12/23 09:29:42;;;;;;;0.80;0.80;;;;;;;;;;5017969;28;20621;-71
2023/12/23 09:32:10;;;;;;;0.70;0.70;;;;;;;;;;5004873;28;20223;-70
2023/12/23 09:34:37;;;;;;;0.80;0.80;;;;;;;;;;5010997;28;20207;-70
2023/12/23 09:37:05;;;;;;;1.10;1.10;;;;;;;;;;5001567;28;20200;-72
2023/12/23 09:39:33;;;;;;;2.23;0.90;;;;;;;;;;5010428;28;20667;-74
2023/12/23 09:42:00;;;;;;;0.90;0.90;;;;;;;;;;5011134;28;20223;-72
2023/12/23 09:44:28;;;;;;;1.00;1.00;;;;;;;;;;5011429;28;20211;-71
2023/12/23 09:46:55;;;;;;;0.70;0.70;;;;;;;;;;5011159;28;20274;-71
2023/12/23 09:49:24;;;;;;;0.80;0.80;;;;;;;;;;5015532;28;20226;-70
2023/12/23 09:51:52;;;;;;;0.70;0.70;;;;;;;;;;5020889;28;20233;-72
2023/12/23 09:54:21;;;;;;;1.70;0.90;;;;;;;;;;5010245;28;20254;-72
2023/12/23 09:56:48;;;;;;;0.97;0.80;;;;;;;;;;4994012;28;20597;-72
2023/12/23 09:59:16;;;;;;;0.80;0.80;;;;;;;;;;5011045;28;20247;-72
2023/12/23 10:01:43;;;;;;;0.80;0.80;;;;;;;;;;5016957;28;20243;-73
2023/12/23 10:04:11;;;;;;;0.90;0.90;;;;;;;;;;5016389;28;20203;-71
2023/12/23 10:06:39;;;;;;;0.70;0.70;;;;;;;;;;4990725;28;20199;-71
2023/12/23 10:09:08;;;;;;;0.80;0.80;;;;;;;;;;4984095;28;20238;-71
2023/12/23 10:11:36;;;;;;;0.80;0.80;;;;;;;;;;4991963;28;20227;-72
2023/12/23 10:14:03;;;;;;;0.73;0.73;;;;;;;;;;4994660;28;20222;-71
2023/12/23 10:16:31;;;;;;;1.00;1.00;;;;;;;;;;4992721;28;20212;-71
2023/12/23 10:18:59;;;;;;;0.97;0.97;;;;;;;;;;4992415;28;20207;-73
2023/12/23 10:21:26;;;;;;;0.90;0.90;;;;;;;;;;4989036;28;20281;-72
2023/12/23 10:23:54;;;;;;;1.13;1.13;;;;;;;;;;4979281;28;20219;-71
2023/12/23 10:26:21;;;;;;;2.30;2.20;;;;;;;;;;4980915;28;20329;-72
2023/12/23 10:28:53;;;;;;;1.60;1.50;;;;;;;;;;4981538;28;20721;-71
2023/12/23 10:31:22;;;;;;;0.90;0.90;;;;;;;;;;4990205;28;20276;-72
2023/12/23 10:33:52;;;;;;;1.63;1.37;;;;;;;;;;4987354;28;20662;-72
2023/12/23 10:36:20;;;;;;;1.00;1.00;;;;;;;;;;4972725;28;20214;-72
2023/12/23 10:38:52;;;;;;;0.90;0.90;;;;;;;;;;4963271;28;21544;-71
2023/12/23 10:41:25;;;;;;;1.17;1.13;;;;;;;;;;4966963;28;20276;-72
2023/12/23 10:43:53;;;;;;;1.00;1.00;;;;;;;;;;4966097;28;20204;-73
2023/12/23 10:46:21;;;;;;;1.00;1.00;;;;;;;;;;4975110;28;21325;-72
2023/12/23 10:48:50;;;;;;;1.10;1.10;;;;;;;;;;4985133;28;20240;-74
2023/12/23 10:51:19;;;;;;;0.70;0.70;;;;;;;;;;4997391;28;20317;-74
2023/12/23 10:53:46;;;;;;;0.80;0.80;;;;;;;;;;4973191;28;20213;-74
2023/12/23 10:56:14;;;;;;;1.00;1.00;;;;;;;;;;4974274;28;20302;-75
2023/12/23 10:58:43;;;;;;;0.70;0.70;;;;;;;;;;4979968;28;20204;-72
2023/12/23 11:01:12;;;;;;;0.87;0.87;;;;;;;;;;5012518;28;20717;-70
2023/12/23 11:03:40;;;;;;;1.40;1.07;;;;;;;;;;5013651;28;20234;-72
2023/12/23 11:06:08;;;;;;;0.70;0.70;;;;;;;;;;5000911;28;20247;-71
2023/12/23 11:08:37;;;;;;;0.70;0.70;;;;;;;;;;5011258;28;20311;-71
2023/12/23 11:11:05;;;;;;;0.80;0.80;;;;;;;;;;5014338;28;20223;-69
2023/12/23 11:13:32;;;;;;;0.63;0.63;;;;;;;;;;4976011;28;20628;-68
2023/12/23 11:16:00;;;;;;;0.83;0.80;;;;;;;;;;4962098;28;20271;-73
2023/12/23 11:18:28;;;;;;;0.80;0.80;;;;;;;;;;4981162;28;20295;-72
2023/12/23 11:20:56;;;;;;;0.70;0.70;;;;;;;;;;4989073;28;20211;-73
2023/12/23 11:23:28;;;;;;;0.70;0.70;;;;;;;;;;4991852;28;20248;-67
2023/12/23 11:25:55;;;;;;;1.07;1.07;;;;;;;;;;5010182;28;20208;-68
2023/12/23 11:28:25;;;;;;;0.80;0.80;;;;;;;;;;5008502;28;20237;-70
2023/12/23 11:30:56;;;;;;;0.80;0.80;;;;;;;;;;4991472;28;20295;-70
2023/12/23 11:33:26;;;;;;;1.00;0.90;;;;;;;;;;5010419;28;20251;-69
2023/12/23 11:35:54;;;;;;;0.70;0.70;;;;;;;;;;4990923;28;20218;-73
2023/12/23 11:38:28;;;;;;;0.80;0.80;;;;;;;;;;4994695;28;20219;-75
2023/12/23 11:40:56;;;;;;;0.70;0.70;;;;;;;;;;4997201;28;20207;-72
2023/12/23 11:43:24;;;;;;;0.60;0.60;;;;;;;;;;5011726;28;20208;-72
2023/12/23 11:45:52;;;;;;;0.90;0.90;;;;;;;;;;5011825;28;20254;-72
2023/12/23 11:48:21;;;;;;;0.80;0.80;;;;;;;;;;5009013;28;20211;-71
2023/12/23 11:50:49;;;;;;;0.97;0.90;;;;;;;;;;5008183;28;20713;-70
2023/12/23 11:53:16;;;;;;;0.80;0.80;;;;;;;;;;5000755;28;20257;-77
2023/12/23 11:55:44;;;;;;;0.70;0.70;;;;;;;;;;4995771;28;20204;-73
2023/12/23 11:58:11;;;;;;;2.10;0.80;;;;;;;;;;4990930;28;20226;-72
2023/12/23 12:00:40;;;;;;;1.10;1.10;;;;;;;;;;5006752;28;20199;-71
2023/12/23 12:03:08;;;;;;;1.00;1.00;;;;;;;;;;5020620;28;20236;-72
2023/12/23 12:05:36;;;;;;;0.77;0.77;;;;;;;;;;4997584;28;20270;-73
2023/12/23 12:08:03;;;;;;;0.90;0.90;;;;;;;;;;5006810;28;20567;-71
2023/12/23 12:10:31;;;;;;;0.83;0.83;;;;;;;;;;4988170;28;20238;-73
2023/12/23 12:12:58;;;;;;;0.80;0.80;;;;;;;;;;5008174;28;20274;-72
2023/12/23 12:15:25;;;;;;;0.80;0.80;;;;;;;;;;5010904;28;20301;-68
2023/12/23 12:17:53;;;;;;;0.80;0.80;;;;;;;;;;5012932;28;20207;-72
2023/12/23 12:20:22;;;;;;;0.80;0.80;;;;;;;;;;5012191;28;20583;-73
2023/12/23 12:22:50;;;;;;;0.90;0.90;;;;;;;;;;5016597;28;20765;-71
2023/12/23 12:25:17;;;;;;;0.80;0.80;;;;;;;;;;4993782;28;20266;-71
2023/12/23 12:27:46;;;;;;;0.70;0.70;;;;;;;;;;4998130;28;20219;-68
2023/12/23 12:30:14;;;;;;;0.70;0.70;;;;;;;;;;4964925;28;20242;-68
2023/12/23 12:32:52;;;;;;;0.70;0.70;;;;;;;;;;4992990;28;20318;-70
2023/12/23 12:35:21;;;;;;;0.73;0.73;;;;;;;;;;4994573;28;20802;-72
2023/12/23 12:37:49;;;;;;;1.20;0.80;;;;;;;;;;4987732;28;20202;-73
2023/12/23 12:40:18;;;;;;;1.70;0.90;;;;;;;;;;4988927;28;20250;-71
2023/12/23 12:42:49;;;;;;;1.03;1.03;;;;;;;;;;4984298;28;20231;-73
2023/12/23 12:45:17;;;;;;;0.80;0.80;;;;;;;;;;4978754;28;20210;-71
2023/12/23 12:47:48;;;;;;;0.80;0.80;;;;;;;;;;4973579;28;20208;-74
2023/12/23 12:50:18;;;;;;;1.30;1.20;;;;;;;;;;4978207;28;20223;-71
2023/12/23 12:52:46;;;;;;;1.10;1.00;;;;;;;;;;5003233;28;20232;-70
2023/12/23 12:55:14;;;;;;;0.80;0.80;;;;;;;;;;4975057;28;20203;-71
2023/12/23 12:57:43;;;;;;;0.80;0.80;;;;;;;;;;4960839;28;20218;-71
2023/12/23 13:00:11;;;;;;;1.07;1.07;;;;;;;;;;4982497;28;20339;-71
2023/12/23 13:02:38;;;;;;;1.50;1.40;;;;;;;;;;4986040;28;20228;-71
2023/12/23 13:05:08;;;;;;;0.80;0.80;;;;;;;;;;4963895;28;20211;-70
2023/12/23 13:07:36;;;;;;;0.80;0.80;;;;;;;;;;4976461;28;20211;-69
2023/12/23 13:10:03;;;;;;;0.70;0.70;;;;;;;;;;4976059;28;20223;-71
2023/12/23 13:12:30;;;;;;;0.80;0.80;;;;;;;;;;4969254;28;20235;-71
2023/12/23 13:14:58;;;;;;;0.70;0.70;;;;;;;;;;4965542;28;20210;-71
2023/12/23 13:17:25;;;;;;;0.73;0.73;;;;;;;;;;4972829;28;20241;-70
2023/12/23 13:19:52;;;;;;;1.00;1.00;;;;;;;;;;4998515;28;20603;-70
2023/12/23 13:22:20;;;;;;;1.00;0.80;;;;;;;;;;5019680;28;20364;-72
2023/12/23 13:24:47;;;;;;;0.80;0.80;;;;;;;;;;5022144;28;20200;-71
2023/12/23 13:27:17;;;;;;;1.20;1.20;;;;;;;;;;4993182;28;20238;-71
2023/12/23 13:29:45;;;;;;;0.80;0.80;;;;;;;;;;5011150;28;20231;-73
2023/12/23 13:32:12;;;;;;;0.70;0.70;;;;;;;;;;5009937;28;20274;-71
2023/12/23 13:34:39;;;;;;;0.60;0.60;;;;;;;;;;5012020;28;20297;-73
2023/12/23 13:37:07;;;;;;;0.70;0.70;;;;;;;;;;5011079;28;20219;-72
2023/12/23 13:39:34;;;;;;;1.30;1.30;;;;;;;;;;5010154;28;20218;-70
2023/12/23 13:42:02;;;;;;;0.70;0.70;;;;;;;;;;4988761;28;20315;-70
2023/12/23 13:44:34;;;;;;;0.80;0.80;;;;;;;;;;5002670;28;20733;-70
2023/12/23 13:47:03;;;;;;;2.20;0.70;;;;;;;;;;5007573;28;20337;-70
2023/12/23 13:49:31;;;;;;;0.70;0.70;;;;;;;;;;5013620;28;20273;-70
2023/12/23 13:51:58;;;;;;;1.67;1.57;;;;;;;;;;4999295;28;20231;-72
2023/12/23 13:54:26;;;;;;;1.20;1.20;;;;;;;;;;4975662;28;20738;-73
2023/12/23 13:56:53;;;;;;;5.77;4.20;;;;;;;;;;4992257;28;20289;-73
2023/12/23 13:59:20;;;;;;;0.60;0.60;;;;;;;;;;4994359;28;20211;-72
2023/12/23 14:01:48;;;;;;;1.07;1.07;;;;;;;;;;4991071;28;21650;-73
2023/12/23 14:04:15;;;;;;;0.80;0.80;;;;;;;;;;4994753;28;20212;-74
2023/12/23 14:06:42;;;;;;;0.80;0.80;;;;;;;;;;4991438;28;20219;-74
2023/12/23 14:09:10;;;;;;;1.07;0.77;;;;;;;;;;4993838;28;20231;-73
2023/12/23 14:11:37;;;;;;;0.87;0.87;;;;;;;;;;4992103;28;20231;-72
2023/12/23 14:14:04;;;;;;;0.80;0.80;;;;;;;;;;4985915;28;20220;-73
2023/12/23 14:16:32;;;;;;;0.70;0.70;;;;;;;;;;4988575;28;20239;-72
2023/12/23 14:18:59;;;;;;;0.80;0.80;;;;;;;;;;4985760;28;20212;-74
2023/12/23 14:21:27;;;;;;;0.80;0.80;;;;;;;;;;4968938;28;20234;-73
2023/12/23 14:23:54;;;;;;;0.67;0.67;;;;;;;;;;4981298;28;20580;-74
2023/12/23 14:26:22;;;;;;;0.70;0.70;;;;;;;;;;4999657;28;20239;-72
2023/12/23 14:28:49;;;;;;;0.90;0.90;;;;;;;;;;4985804;28;20290;-75
2023/12/23 14:31:59;;;;;;;0.60;0.60;;;;;;;;;;4985862;28;20682;-73
2023/12/23 14:34:44;;;;;;;0.70;0.70;;;;;;;;;;4958476;28;20230;-74
2023/12/23 14:37:12;;;;;;;0.70;0.70;;;;;;;;;;4978230;28;20282;-72
2023/12/23 14:39:40;;;;;;;0.97;0.80;;;;;;;;;;4989736;28;20210;-73
2023/12/23 14:42:07;;;;;;;0.70;0.70;;;;;;;;;;4986448;28;20239;-73
2023/12/23 14:44:35;;;;;;;0.90;0.90;;;;;;;;;;4994166;28;20203;-74
2023/12/23 14:47:02;;;;;;;0.87;0.87;;;;;;;;;;4987092;28;20322;-73